Dallas, PA (18612)

11:58 PM EDT on April 28, 2016 (GMT -0400)
Captains Quarters Shavertown | | Change Station

Elev 1145 ft 41.33 °N, 75.94 °W | Updated 12 minutes ago

Overcast
Overcast
43.3 °F
Feels Like 43 °F
N
0.0
Wind Variable Wind from NNE

Today
High -- | Low -- °F
--% Chance of Precip.
Yesterday
High -- | Low -- °F
Precip. -- in
Pressure 30.02 in
Visibility 9.0 miles
Clouds Overcast 8000 ft
Windchill 43 °F
Dew Point 42 °F
Humidity 96%
Rainfall 0.15 in
Snow Depth Not available.
6:04 AM 7:58 PM
Waning Gibbous, 60% visible
METAR KAVP 290354Z 00000KT 9SM OVC080 07/06 A3002 RMK AO2 RAB0259E17 SLP165 P0000 T00720061
Pressure 30.02 in
Visibility 9.0 miles
Clouds Overcast 8000 ft
Windchill 43 °F
Dew Point 42 °F
Humidity 96%
Rainfall 0.15 in
Snow Depth Not available.
6:04 AM 7:58 PM
Waning Gibbous, 60% visible
METAR KAVP 290354Z 00000KT 9SM OVC080 07/06 A3002 RMK AO2 RAB0259E17 SLP165 P0000 T00720061

10-Day Weather Forecast

Almanac

Astronomy

Apr. 28, 2016 Rise Set
Actual Time
Civil Twilight
Nautical Twilight
Astronomical Twilight
Moon
Length of Visible Light
Length of Day
Tomorrow will be .
, % of the Moon is Illuminated

Today's Extremes

State Highs State Lows

Community

WunderPhotos

Upload Photos

1,908,695 photos uploaded!

WunderBlog® & News

Nearby

Air Quality

  Air Quality AQ Index Pollutant
Not available.

Snow Depth

Station Depth Elevation

Earthquake Activity

City Distance Mag. Time & Date
Minimum magnitude displayed is 2.5.

Coastal Water Temperatures

Place Temperature

Stations

Nearby Weather Stations

Station Location Temp. Windchill Dew Point Humidity Wind Precip. Elev Updated Type
                   

Watches & Warnings

There are currently no watches in effect.